Time;durP1;ratioP1;P1;durP2;ratioP2;P2;SDS_P1;SDS_P2;PMS_P1;PMS_P2;Temp;Humidity;BMP_temperature;BMP_pressure;BME280_temperature;BME280_humidity;BME280_pressure;Samples;Min_cycle;Max_cycle;Signal;HPM_P1;HPM_P2
2023/05/03 00:00:41;;;;;;;13.97;3.70;;;4.00;95.20;;;;;;5036591;28;20179;-49
2023/05/03 00:03:06;;;;;;;7.13;3.40;;;4.00;91.80;;;;;;5036694;28;20184;-49
2023/05/03 00:05:32;;;;;;;8.60;3.50;;;4.00;79.60;;;;;;5036778;28;20175;-49
2023/05/03 00:07:58;;;;;;;9.13;3.50;;;3.90;81.90;;;;;;5036588;28;20241;-50
2023/05/03 00:10:24;;;;;;;8.93;3.60;;;3.90;88.90;;;;;;5036611;28;20630;-49
2023/05/03 00:12:49;;;;;;;8.13;3.33;;;3.90;97.00;;;;;;5036930;28;20222;-50
2023/05/03 00:15:15;;;;;;;8.00;3.73;;;3.90;95.70;;;;;;5036528;28;20445;-49
2023/05/03 00:17:41;;;;;;;9.00;4.20;;;3.90;99.90;;;;;;5036367;28;20175;-49
2023/05/03 00:20:07;;;;;;;6.27;3.70;;;3.90;94.80;;;;;;5036061;28;20773;-49
2023/05/03 00:22:33;;;;;;;7.57;3.80;;;3.90;91.50;;;;;;5036435;28;20185;-49
2023/05/03 00:24:59;;;;;;;7.63;3.40;;;3.90;95.20;;;;;;5036437;28;20463;-49
2023/05/03 00:27:25;;;;;;;5.90;3.20;;;3.90;99.50;;;;;;5036511;28;20237;-50
2023/05/03 00:29:51;;;;;;;8.03;3.40;;;3.90;92.10;;;;;;5035788;28;20906;-49
2023/05/03 00:32:23;;;;;;;11.30;3.27;;;3.90;94.30;;;;;;5036381;28;20421;-49
2023/05/03 00:34:56;;;;;;;6.10;3.07;;;3.90;96.90;;;;;;5035878;28;20419;-50
2023/05/03 00:37:22;;;;;;;9.70;3.70;;;3.80;97.90;;;;;;5036461;28;20427;-49
2023/05/03 00:39:48;;;;;;;4.37;3.60;;;3.80;99.70;;;;;;5036098;28;21048;-49
2023/05/03 00:42:14;;;;;;;8.87;3.40;;;3.80;99.90;;;;;;5036047;28;20491;-49
2023/05/03 00:44:39;;;;;;;5.63;3.53;;;3.80;99.90;;;;;;5036173;28;20558;-49
2023/05/03 00:47:05;;;;;;;8.53;3.17;;;3.80;99.90;;;;;;5036046;28;20528;-49
2023/05/03 00:49:32;;;;;;;11.30;3.53;;;3.70;99.90;;;;;;5035528;28;20311;-49
2023/05/03 00:51:58;;;;;;;8.23;3.73;;;3.70;99.90;;;;;;5035539;28;20548;-49
2023/05/03 00:54:26;;;;;;;5.30;3.93;;;3.70;99.90;;;;;;5035719;28;20422;-50
2023/05/03 00:56:52;;;;;;;9.33;3.70;;;3.70;99.90;;;;;;5035684;28;20430;-48
2023/05/03 00:59:18;;;;;;;12.00;4.37;;;3.70;99.90;;;;;;5035512;28;20421;-50
2023/05/03 01:01:50;;;;;;;10.53;4.30;;;3.70;99.90;;;;;;5035045;28;20179;-49
2023/05/03 01:04:17;;;;;;;8.80;3.43;;;3.80;99.90;;;;;;5035522;28;20460;-48
2023/05/03 01:06:54;;;;;;;10.80;3.57;;;3.80;99.90;;;;;;5035226;28;20924;-49
2023/05/03 01:09:19;;;;;;;8.23;3.80;;;3.80;99.90;;;;;;5035574;28;20501;-49
2023/05/03 01:11:59;;;;;;;15.07;3.73;;;3.80;99.90;;;;;;5035659;28;21034;-49
2023/05/03 01:14:38;;;;;;;7.80;3.80;;;3.80;99.90;;;;;;5035467;28;20172;-50
2023/05/03 01:17:10;;;;;;;11.60;3.33;;;3.80;99.90;;;;;;5035367;28;20457;-48
2023/05/03 01:19:39;;;;;;;6.20;3.30;;;3.80;99.90;;;;;;5034934;28;20505;-49
2023/05/03 01:22:24;;;;;;;10.03;3.60;;;3.80;99.90;;;;;;5034933;28;20921;-50
2023/05/03 01:24:58;;;;;;;8.63;3.30;;;3.70;99.90;;;;;;5035205;28;20875;-49
2023/05/03 01:27:24;;;;;;;6.80;3.00;;;3.70;99.90;;;;;;5034919;28;20404;-49
2023/05/03 01:29:50;;;;;;;10.00;3.90;;;3.70;99.90;;;;;;5034833;28;20418;-49
2023/05/03 01:32:25;;;;;;;10.13;4.20;;;3.60;99.90;;;;;;5035063;28;20211;-49
2023/05/03 01:35:07;;;;;;;9.00;3.30;;;3.60;99.90;;;;;;5035110;28;20410;-49
2023/05/03 01:37:36;;;;;;;9.63;3.90;;;3.60;99.90;;;;;;5034909;28;20849;-49
2023/05/03 01:40:06;;;;;;;8.40;3.27;;;3.60;99.90;;;;;;5035168;28;20427;-49
2023/05/03 01:42:35;;;;;;;5.80;3.70;;;3.70;99.90;;;;;;5034968;28;20464;-49
2023/05/03 01:45:03;;;;;;;12.07;4.60;;;3.70;99.90;;;;;;5035415;28;20429;-49
2023/05/03 01:47:28;;;;;;;6.10;3.67;;;3.80;99.90;;;;;;5034255;28;20422;-49
2023/05/03 01:49:54;;;;;;;7.80;3.90;;;3.80;99.90;;;;;;5034635;28;20837;-49
2023/05/03 01:52:19;;;;;;;9.37;3.87;;;3.90;99.90;;;;;;5034435;28;20206;-49
2023/05/03 01:54:45;;;;;;;15.37;4.20;;;4.00;99.90;;;;;;5034829;28;20183;-49
2023/05/03 01:57:10;;;;;;;6.97;3.53;;;4.10;99.90;;;;;;5034552;28;20186;-50
2023/05/03 01:59:36;;;;;;;5.20;3.30;;;4.10;99.90;;;;;;5034402;28;20271;-49
2023/05/03 02:02:02;;;;;;;7.10;3.20;;;4.30;99.90;;;;;;5034639;28;20195;-50
2023/05/03 02:04:29;;;;;;;8.40;3.10;;;4.30;99.90;;;;;;5034297;28;20632;-49
2023/05/03 02:06:54;;;;;;;7.57;3.40;;;4.40;99.90;;;;;;5034282;28;20550;-50
2023/05/03 02:09:21;;;;;;;7.27;3.60;;;4.50;99.90;;;;;;5034545;28;20425;-49
2023/05/03 02:11:47;;;;;;;5.60;3.30;;;4.50;99.90;;;;;;5034306;28;20485;-49
2023/05/03 02:14:12;;;;;;;4.87;2.83;;;4.60;99.90;;;;;;5034359;28;20853;-49
2023/05/03 02:16:38;;;;;;;5.93;3.10;;;4.60;99.90;;;;;;5034457;28;20572;-50
2023/05/03 02:19:05;;;;;;;5.10;3.03;;;4.60;99.90;;;;;;5034237;28;20184;-49
2023/05/03 02:21:32;;;;;;;5.03;3.60;;;4.60;99.90;;;;;;5034312;28;20883;-49
2023/05/03 02:23:58;;;;;;;6.67;3.40;;;4.60;99.90;;;;;;5034352;28;20456;-49
2023/05/03 02:26:24;;;;;;;7.30;4.53;;;4.60;99.90;;;;;;5034164;28;20453;-49
2023/05/03 02:28:49;;;;;;;8.20;4.53;;;4.60;99.90;;;;;;5033746;28;20597;-49
2023/05/03 02:31:15;;;;;;;12.70;4.50;;;4.60;99.90;;;;;;5033658;28;20203;-49
2023/05/03 02:33:41;;;;;;;10.73;5.77;;;4.70;99.90;;;;;;5034114;28;20222;-49
2023/05/03 02:36:06;;;;;;;9.10;5.10;;;4.70;99.90;;;;;;5033767;28;20179;-49
2023/05/03 02:38:32;;;;;;;13.50;5.53;;;4.70;99.90;;;;;;5034022;28;20191;-49
2023/05/03 02:40:58;;;;;;;12.60;6.00;;;4.80;99.90;;;;;;5033833;28;20191;-49
2023/05/03 02:43:24;;;;;;;9.17;5.70;;;4.80;99.90;;;;;;5033868;28;20187;-49
2023/05/03 02:45:50;;;;;;;11.60;5.80;;;4.80;99.90;;;;;;5033756;28;20418;-49
2023/05/03 02:48:16;;;;;;;10.00;5.67;;;4.80;99.90;;;;;;5033188;28;20501;-49
2023/05/03 02:50:41;;;;;;;16.17;7.17;;;4.90;99.90;;;;;;5033636;28;20206;-49
2023/05/03 02:53:08;;;;;;;13.17;6.80;;;4.90;99.90;;;;;;5033605;28;20261;-50
2023/05/03 02:55:34;;;;;;;8.17;5.77;;;4.90;1.00;;;;;;5034005;28;20453;-49
2023/05/03 02:58:00;;;;;;;12.53;5.63;;;5.00;1.00;;;;;;5033542;28;20258;-49
2023/05/03 03:00:26;;;;;;;7.50;5.43;;;5.00;1.00;;;;;;5033729;28;20414;-50
2023/05/03 03:02:51;;;;;;;14.10;6.90;;;5.00;1.00;;;;;;5033913;28;20453;-49
2023/05/03 03:05:17;;;;;;;8.07;5.50;;;5.00;99.90;;;;;;5033708;28;20179;-49
2023/05/03 03:07:42;;;;;;;8.23;5.23;;;5.00;1.00;;;;;;5033804;28;20186;-49
2023/05/03 03:10:08;;;;;;;11.10;6.30;;;5.10;99.90;;;;;;5033188;28;20254;-49
2023/05/03 03:12:35;;;;;;;16.00;6.70;;;5.10;99.90;;;;;;5033367;28;20279;-49
2023/05/03 03:15:00;;;;;;;12.63;6.27;;;5.10;99.90;;;;;;5033076;28;20426;-49
2023/05/03 03:17:26;;;;;;;9.03;6.13;;;5.10;1.00;;;;;;5033357;28;20422;-48
2023/05/03 03:19:51;;;;;;;11.17;6.23;;;5.10;1.00;;;;;;5033467;28;20582;-49
2023/05/03 03:22:17;;;;;;;11.90;5.60;;;5.10;1.00;;;;;;5033469;28;20205;-49
2023/05/03 03:24:44;;;;;;;11.50;6.13;;;5.20;1.00;;;;;;5036926;28;20532;-50
2023/05/03 03:27:09;;;;;;;13.23;5.70;;;5.20;99.90;;;;;;5037534;28;20215;-50
2023/05/03 03:29:35;;;;;;;16.83;5.53;;;5.20;99.90;;;;;;5037588;28;20443;-50
2023/05/03 03:32:00;;;;;;;8.60;6.23;;;5.30;99.90;;;;;;5037115;28;20203;-49
2023/05/03 03:34:26;;;;;;;12.40;6.03;;;5.30;99.90;;;;;;5037228;28;20186;-49
2023/05/03 03:36:52;;;;;;;8.13;5.73;;;5.30;99.90;;;;;;5037344;28;20182;-49
2023/05/03 03:39:18;;;;;;;15.93;5.50;;;5.30;99.90;;;;;;5037100;28;20222;-49
2023/05/03 03:41:43;;;;;;;12.27;5.83;;;5.30;99.90;;;;;;5037157;28;20180;-49
2023/05/03 03:44:09;;;;;;;7.70;5.23;;;5.40;99.90;;;;;;5036644;28;20605;-49
2023/05/03 03:46:34;;;;;;;10.87;6.10;;;5.40;99.90;;;;;;5036779;28;20183;-48
2023/05/03 03:49:00;;;;;;;11.67;5.47;;;5.40;99.90;;;;;;5036828;28;20231;-49
2023/05/03 03:51:26;;;;;;;11.27;6.03;;;5.40;99.90;;;;;;5036705;28;20561;-50
2023/05/03 03:53:51;;;;;;;10.70;5.97;;;5.50;99.90;;;;;;5037044;28;20241;-50
2023/05/03 03:56:17;;;;;;;17.93;5.10;;;5.50;99.90;;;;;;5036746;28;20542;-49
2023/05/03 03:58:43;;;;;;;10.73;5.40;;;5.50;99.90;;;;;;5036677;28;20612;-49
2023/05/03 04:01:08;;;;;;;10.37;5.20;;;5.50;99.90;;;;;;5036560;28;20194;-49
2023/05/03 04:03:34;;;;;;;15.70;5.50;;;5.50;99.90;;;;;;5036568;28;20194;-49
2023/05/03 04:06:00;;;;;;;6.77;4.63;;;5.60;99.90;;;;;;5036513;28;20185;-49
2023/05/03 04:08:25;;;;;;;10.63;5.97;;;5.50;99.90;;;;;;5036270;28;20513;-49
2023/05/03 04:10:51;;;;;;;11.60;5.90;;;5.50;99.90;;;;;;5036389;28;20215;-49
2023/05/03 04:13:16;;;;;;;12.40;5.23;;;5.60;99.90;;;;;;5036608;28;20190;-50
2023/05/03 04:15:43;;;;;;;8.07;5.40;;;5.60;99.90;;;;;;5036514;28;20214;-49
2023/05/03 04:18:08;;;;;;;7.17;5.07;;;5.60;99.90;;;;;;5036603;28;20175;-49
2023/05/03 04:20:35;;;;;;;7.83;5.77;;;5.60;99.90;;;;;;5036597;28;20422;-49
2023/05/03 04:23:00;;;;;;;7.40;5.23;;;5.60;99.90;;;;;;5036289;28;20191;-50
2023/05/03 04:25:26;;;;;;;8.40;5.90;;;5.70;99.90;;;;;;5036426;28;20472;-50
2023/05/03 04:27:52;;;;;;;18.30;6.40;;;5.70;99.90;;;;;;5036498;28;20183;-49
2023/05/03 04:30:18;;;;;;;14.37;6.60;;;5.80;99.90;;;;;;5036256;28;20210;-49
2023/05/03 04:32:46;;;;;;;9.87;6.10;;;5.80;99.90;;;;;;5036411;28;20421;-49
2023/05/03 04:35:11;;;;;;;11.23;6.20;;;5.90;99.90;;;;;;5035142;28;20882;-49
2023/05/03 04:37:38;;;;;;;11.77;5.30;;;6.00;99.90;;;;;;5036140;28;20418;-50
2023/05/03 04:40:08;;;;;;;10.90;5.63;;;6.00;99.90;;;;;;5036062;28;20180;-50
2023/05/03 04:42:35;;;;;;;11.17;6.00;;;6.10;99.90;;;;;;5035931;28;20414;-49
2023/05/03 04:45:04;;;;;;;8.63;5.53;;;6.10;99.90;;;;;;5036164;28;20414;-49
2023/05/03 04:47:29;;;;;;;14.20;5.70;;;6.20;99.80;;;;;;5035670;28;20429;-49
2023/05/03 04:49:55;;;;;;;10.33;6.00;;;6.20;90.90;;;;;;5035875;28;20415;-49
2023/05/03 04:52:21;;;;;;;20.27;5.60;;;6.30;90.70;;;;;;5035927;28;20187;-49
2023/05/03 04:54:46;;;;;;;12.30;6.80;;;6.30;91.20;;;;;;5035829;28;20183;-50
2023/05/03 04:57:12;;;;;;;10.60;6.20;;;6.40;92.70;;;;;;5035656;28;20184;-49
2023/05/03 04:59:37;;;;;;;17.23;5.90;;;6.40;99.40;;;;;;5035554;28;20203;-50
2023/05/03 05:02:03;;;;;;;14.63;5.87;;;6.40;82.70;;;;;;5035324;28;20244;-49
2023/05/03 05:04:29;;;;;;;16.87;5.83;;;6.50;84.00;;;;;;5035656;28;20696;-49
2023/05/03 05:06:54;;;;;;;9.07;5.30;;;6.60;59.10;;;;;;5035488;28;20173;-50
2023/05/03 05:09:25;;;;;;;15.47;6.10;;;6.60;26.40;;;;;;5035540;28;20206;-50
2023/05/03 05:11:51;;;;;;;9.77;5.90;;;6.70;15.70;;;;;;5035391;28;20819;-50
2023/05/03 05:14:17;;;;;;;11.70;5.87;;;6.70;16.80;;;;;;5035362;28;20443;-49
2023/05/03 05:16:42;;;;;;;10.23;5.77;;;6.80;14.30;;;;;;5035362;28;20179;-49
2023/05/03 05:19:08;;;;;;;18.20;6.07;;;6.80;1.00;;;;;;5035538;28;20183;-49
2023/05/03 05:21:34;;;;;;;9.53;4.73;;;6.90;1.00;;;;;;5035507;28;20622;-49
2023/05/03 05:23:59;;;;;;;9.27;5.70;;;7.00;1.00;;;;;;5035279;28;20276;-50
2023/05/03 05:26:26;;;;;;;11.93;5.47;;;7.20;1.00;;;;;;5035454;28;20187;-49
2023/05/03 05:28:52;;;;;;;15.13;6.37;;;7.30;1.00;;;;;;5035305;28;20410;-49
2023/05/03 05:31:18;;;;;;;10.93;5.63;;;7.40;1.00;;;;;;5034761;28;20807;-50
2023/05/03 05:33:43;;;;;;;8.67;5.60;;;7.50;1.00;;;;;;5034896;28;20251;-50
2023/05/03 05:36:09;;;;;;;10.77;5.60;;;7.60;1.00;;;;;;5035083;28;20624;-50
2023/05/03 05:38:35;;;;;;;10.70;5.47;;;7.70;1.00;;;;;;5035306;28;20178;-49
2023/05/03 05:41:01;;;;;;;10.37;5.73;;;7.80;1.00;;;;;;5035200;28;20771;-49
2023/05/03 05:43:26;;;;;;;12.47;5.40;;;8.00;1.00;;;;;;5034757;28;20560;-50
2023/05/03 05:45:52;;;;;;;12.37;5.30;;;8.00;1.00;;;;;;5034345;28;20265;-50
2023/05/03 05:48:18;;;;;;;12.90;5.13;;;8.10;1.00;;;;;;5034748;28;20235;-49
2023/05/03 05:50:44;;;;;;;9.47;4.67;;;8.20;1.00;;;;;;5034796;28;20302;-50
2023/05/03 05:53:09;;;;;;;6.53;4.37;;;8.30;1.00;;;;;;5034963;28;20182;-50
2023/05/03 05:55:35;;;;;;;7.60;4.00;;;8.40;1.00;;;;;;5034894;28;20241;-49
2023/05/03 05:58:00;;;;;;;7.87;3.90;;;8.50;1.00;;;;;;5034674;28;20511;-49
2023/05/03 06:00:26;;;;;;;9.13;3.80;;;8.60;1.00;;;;;;5033612;28;20405;-49
2023/05/03 06:02:51;;;;;;;6.43;3.73;;;8.70;1.00;;;;;;5034345;28;20180;-49
2023/05/03 06:05:17;;;;;;;11.70;4.43;;;8.70;1.00;;;;;;5034198;28;20273;-50
2023/05/03 06:07:43;;;;;;;12.33;5.23;;;8.90;1.00;;;;;;5033857;28;20563;-50
2023/05/03 06:10:09;;;;;;;7.03;4.40;;;9.00;1.00;;;;;;5033469;28;20457;-50
2023/05/03 06:12:35;;;;;;;5.80;4.13;;;9.00;1.00;;;;;;5034690;28;20190;-49
2023/05/03 06:15:02;;;;;;;12.57;4.80;;;9.10;1.00;;;;;;5034235;28;20179;-50
2023/05/03 06:17:27;;;;;;;8.97;3.80;;;9.30;1.00;;;;;;5034030;28;20509;-50
2023/05/03 06:19:53;;;;;;;7.97;3.60;;;9.50;1.00;;;;;;5034323;28;20500;-51
2023/05/03 06:22:19;;;;;;;6.17;3.43;;;9.70;1.00;;;;;;5034205;28;20231;-49
2023/05/03 06:24:44;;;;;;;8.57;3.43;;;9.90;1.00;;;;;;5033955;28;20183;-49
2023/05/03 06:27:10;;;;;;;6.00;2.50;;;10.00;1.00;;;;;;5034230;28;20172;-50
2023/05/03 06:29:36;;;;;;;7.60;2.73;;;10.10;1.00;;;;;;5034254;28;20527;-49
2023/05/03 06:32:01;;;;;;;5.43;2.23;;;10.30;1.00;;;;;;5034084;28;20256;-50
2023/05/03 06:34:28;;;;;;;2.70;2.10;;;10.50;1.00;;;;;;5034283;28;20573;-50
2023/05/03 06:36:54;;;;;;;3.30;1.93;;;10.70;1.00;;;;;;5033871;28;20316;-50
2023/05/03 06:39:19;;;;;;;6.83;2.93;;;10.70;1.00;;;;;;5033660;28;20414;-51
2023/05/03 06:41:45;;;;;;;3.67;2.53;;;10.80;1.00;;;;;;5033773;28;20432;-49
2023/05/03 06:44:11;;;;;;;5.43;2.57;;;11.10;1.00;;;;;;5033917;28;20230;-50
2023/05/03 06:46:37;;;;;;;4.30;2.00;;;11.40;1.00;;;;;;5033368;28;20265;-49
2023/05/03 06:49:02;;;;;;;6.37;2.80;;;11.60;1.00;;;;;;5033640;28;20489;-50
2023/05/03 06:51:31;;;;;;;4.27;1.83;;;11.70;1.00;;;;;;5033822;28;20687;-51
2023/05/03 06:54:05;;;;;;;4.57;2.20;;;11.70;1.00;;;;;;5033351;28;20566;-49
2023/05/03 06:56:32;;;;;;;7.00;2.27;;;11.80;1.00;;;;;;5034244;28;20418;-49
2023/05/03 06:58:58;;;;;;;4.70;1.80;;;11.70;1.00;;;;;;5033061;28;20422;-50
2023/05/03 07:01:24;;;;;;;9.63;2.53;;;11.80;1.00;;;;;;5033532;28;20747;-49
2023/05/03 07:03:49;;;;;;;7.50;2.00;;;11.70;1.00;;;;;;5033354;28;20173;-50
2023/05/03 07:06:15;;;;;;;6.70;2.00;;;11.80;1.00;;;;;;5033394;28;20254;-50
2023/05/03 07:08:41;;;;;;;4.10;1.80;;;11.80;1.00;;;;;;5033518;28;20188;-50
2023/05/03 07:11:07;;;;;;;2.77;2.10;;;11.60;1.00;;;;;;5033358;28;20454;-49
2023/05/03 07:13:32;;;;;;;8.27;2.40;;;11.50;1.00;;;;;;5033677;28;20217;-50
2023/05/03 07:15:58;;;;;;;4.93;1.87;;;11.50;1.00;;;;;;5032917;28;20609;-50
2023/05/03 07:18:24;;;;;;;2.80;1.90;;;11.60;1.00;;;;;;5033193;28;20175;-50
2023/05/03 07:20:50;;;;;;;3.77;1.70;;;11.70;1.00;;;;;;5033444;28;20510;-50
2023/05/03 07:23:15;;;;;;;6.17;1.80;;;11.70;1.00;;;;;;5033535;28;20210;-50
2023/05/03 07:25:42;;;;;;;5.30;2.00;;;11.50;1.00;;;;;;5033350;28;20191;-50
2023/05/03 07:28:07;;;;;;;6.87;1.90;;;11.40;1.00;;;;;;5033814;28;20182;-50
2023/05/03 07:30:33;;;;;;;7.83;2.33;;;11.30;1.00;;;;;;5033344;28;20527;-49
2023/05/03 07:32:59;;;;;;;6.70;2.10;;;11.20;1.00;;;;;;5033632;28;20201;-50
2023/05/03 07:35:26;;;;;;;4.10;2.17;;;11.40;1.00;;;;;;5032974;28;20208;-49
2023/05/03 07:37:51;;;;;;;4.00;1.93;;;11.40;1.00;;;;;;5033329;28;20418;-50
2023/05/03 07:40:18;;;;;;;3.27;1.70;;;11.20;1.00;;;;;;5033478;28;20429;-49
2023/05/03 07:42:43;;;;;;;2.70;1.70;;;11.10;1.00;;;;;;5033356;28;20199;-50
2023/05/03 07:45:09;;;;;;;6.70;1.90;;;11.10;1.00;;;;;;5033093;28;20415;-50
2023/05/03 07:47:38;;;;;;;2.70;1.50;;;11.00;1.00;;;;;;5032468;28;20238;-50
2023/05/03 07:50:05;;;;;;;3.53;1.90;;;11.00;1.00;;;;;;5033190;28;20176;-50
2023/05/03 07:52:38;;;;;;;7.27;2.40;;;10.80;1.00;;;;;;5032865;28;20418;-49
2023/05/03 07:55:04;;;;;;;5.50;2.13;;;10.80;1.00;;;;;;5033344;28;20445;-49
2023/05/03 07:57:30;;;;;;;2.60;1.63;;;10.80;1.00;;;;;;5033060;28;20431;-49
2023/05/03 07:59:56;;;;;;;2.40;1.90;;;10.90;1.00;;;;;;5033403;28;20414;-50
2023/05/03 08:02:21;;;;;;;3.30;2.20;;;10.90;1.00;;;;;;5033175;28;20576;-48
2023/05/03 08:04:47;;;;;;;3.90;1.80;;;10.90;1.00;;;;;;5032990;28;20468;-49
2023/05/03 08:07:13;;;;;;;3.80;1.90;;;11.00;1.00;;;;;;5033174;28;20318;-50
2023/05/03 08:09:39;;;;;;;3.10;1.70;;;11.40;1.00;;;;;;5034580;28;20187;-50
2023/05/03 08:12:05;;;;;;;3.80;2.00;;;12.40;1.00;;;;;;5036611;28;20216;-50
2023/05/03 08:14:30;;;;;;;3.73;1.60;;;12.90;1.00;;;;;;5036644;28;20501;-51
2023/05/03 08:16:56;;;;;;;6.57;2.00;;;13.00;1.00;;;;;;5036307;28;20192;-50
2023/05/03 08:19:21;;;;;;;3.43;1.70;;;12.80;1.00;;;;;;5036524;28;20183;-50
2023/05/03 08:21:47;;;;;;;5.90;1.90;;;12.40;1.00;;;;;;5036085;28;20616;-50
2023/05/03 08:24:13;;;;;;;4.50;2.20;;;12.20;1.00;;;;;;5036617;28;20179;-50
2023/05/03 08:26:39;;;;;;;4.03;1.90;;;11.80;1.00;;;;;;5036182;28;20684;-50
2023/05/03 08:29:06;;;;;;;3.53;1.60;;;11.60;1.00;;;;;;5036619;28;20194;-50
2023/05/03 08:31:31;;;;;;;6.37;2.07;;;11.40;1.00;;;;;;5035952;28;20475;-49
2023/05/03 08:33:57;;;;;;;4.80;1.90;;;11.30;1.00;;;;;;5036381;28;20562;-49
2023/05/03 08:36:23;;;;;;;3.53;2.23;;;11.30;1.00;;;;;;5034566;28;20203;-49
2023/05/03 08:38:49;;;;;;;4.80;1.80;;;11.20;1.00;;;;;;5036411;28;20190;-49
2023/05/03 08:41:28;;;;;;;4.33;2.30;;;11.20;1.00;;;;;;5036339;28;20191;-50
2023/05/03 08:43:54;;;;;;;7.17;2.00;;;11.40;1.00;;;;;;5035732;28;20472;-50
2023/05/03 08:46:21;;;;;;;3.53;1.90;;;11.40;1.00;;;;;;5035845;28;20960;-50
2023/05/03 08:48:48;;;;;;;3.53;1.90;;;11.30;1.00;;;;;;5035699;28;20474;-49
2023/05/03 08:51:16;;;;;;;7.90;2.37;;;11.40;1.00;;;;;;5036211;28;20485;-50
2023/05/03 08:53:42;;;;;;;4.97;2.50;;;11.30;1.00;;;;;;5035763;28;20427;-50
2023/05/03 08:56:09;;;;;;;6.00;2.00;;;11.30;1.00;;;;;;5035632;28;20410;-50
2023/05/03 08:58:36;;;;;;;3.67;1.90;;;11.40;1.00;;;;;;5035560;28;20183;-50
2023/05/03 09:01:06;;;;;;;2.90;1.90;;;11.50;1.00;;;;;;5035546;28;21179;-49
2023/05/03 09:03:32;;;;;;;4.30;2.00;;;11.70;1.00;;;;;;5035757;28;20449;-49
2023/05/03 09:06:01;;;;;;;2.63;1.63;;;11.90;1.00;;;;;;5035763;28;20426;-49
2023/05/03 09:08:27;;;;;;;4.97;2.03;;;12.00;1.00;;;;;;5035463;28;20426;-50
2023/05/03 09:10:53;;;;;;;3.40;1.97;;;12.00;1.00;;;;;;5035513;28;20849;-50
2023/05/03 09:13:19;;;;;;;3.60;2.20;;;12.10;1.00;;;;;;5035681;28;20429;-50
2023/05/03 09:15:54;;;;;;;6.50;2.20;;;12.10;1.00;;;;;;5035543;28;20624;-50
2023/05/03 09:18:21;;;;;;;2.47;1.77;;;12.40;1.00;;;;;;5035451;28;20191;-49
2023/05/03 09:20:51;;;;;;;5.43;1.70;;;12.80;1.00;;;;;;5034866;28;20422;-50
2023/05/03 09:23:25;;;;;;;1.97;1.50;;;14.00;1.00;;;;;;5035282;28;20767;-50
2023/05/03 09:25:52;;;;;;;2.20;1.43;;;15.40;1.00;;;;;;5035146;28;20914;-50
2023/05/03 09:28:18;;;;;;;3.13;1.77;;;16.10;1.00;;;;;;5035006;28;20454;-50
2023/05/03 09:30:45;;;;;;;7.90;1.73;;;16.70;1.00;;;;;;5034947;28;20969;-50
2023/05/03 09:33:18;;;;;;;4.30;1.50;;;16.80;1.00;;;;;;5035357;28;20429;-50
2023/05/03 09:36:03;;;;;;;1.87;1.50;;;16.70;1.00;;;;;;5035135;28;20411;-50
2023/05/03 09:38:33;;;;;;;3.73;1.40;;;15.80;1.00;;;;;;5034993;28;20505;-51
2023/05/03 09:41:04;;;;;;;7.80;1.70;;;15.20;1.00;;;;;;5034871;28;20471;-50
2023/05/03 09:43:30;;;;;;;4.40;1.83;;;14.90;1.00;;;;;;5034980;28;20799;-49
2023/05/03 09:46:12;;;;;;;5.73;1.87;;;14.40;1.00;;;;;;5034705;28;20436;-50
2023/05/03 09:48:38;;;;;;;2.13;1.87;;;14.30;1.00;;;;;;5034831;28;20259;-50
2023/05/03 09:51:05;;;;;;;3.40;1.47;;;14.20;1.00;;;;;;5034765;28;20824;-50
2023/05/03 09:53:35;;;;;;;2.47;1.53;;;14.10;1.00;;;;;;5034435;28;20905;-50
2023/05/03 09:56:11;;;;;;;5.97;1.60;;;14.10;1.00;;;;;;5035052;28;20455;-50
2023/05/03 09:58:38;;;;;;;2.33;1.50;;;14.60;1.00;;;;;;5034934;28;20406;-50
2023/05/03 10:01:04;;;;;;;2.60;1.90;;;15.60;1.00;;;;;;5035156;28;20802;-51
2023/05/03 10:03:49;;;;;;;2.50;1.30;;;16.50;1.00;;;;;;5034887;28;20421;-50
2023/05/03 10:06:29;;;;;;;1.83;1.30;;;17.60;1.00;;;;;;5034561;28;20408;-50
2023/05/03 10:09:13;;;;;;;6.20;1.80;;;17.80;1.00;;;;;;5034617;28;20543;-50
2023/05/03 10:11:51;;;;;;;2.60;1.87;;;17.60;1.00;;;;;;5034331;28;20788;-51
2023/05/03 10:14:19;;;;;;;4.10;2.13;;;16.90;1.00;;;;;;5034392;28;20842;-50
2023/05/03 10:16:49;;;;;;;1.80;1.70;;;16.20;1.00;;;;;;5034576;28;20445;-50
2023/05/03 10:19:24;;;;;;;2.03;1.43;;;15.60;1.00;;;;;;5034381;28;20463;-50
2023/05/03 10:22:05;;;;;;;5.90;2.00;;;15.30;1.00;;;;;;5034527;28;20448;-50
2023/05/03 10:24:32;;;;;;;3.40;1.93;;;14.90;1.00;;;;;;5034133;28;20431;-50
2023/05/03 10:26:58;;;;;;;3.80;2.27;;;14.80;1.00;;;;;;5034281;28;20421;-50
2023/05/03 10:29:46;;;;;;;3.83;2.07;;;14.90;1.00;;;;;;5034476;28;20797;-50
2023/05/03 10:32:41;;;;;;;8.90;1.90;;;15.00;1.00;;;;;;5033220;28;20650;-50
2023/05/03 10:35:14;;;;;;;4.00;2.07;;;15.60;1.00;;;;;;5034135;28;20501;-51
2023/05/03 10:37:41;;;;;;;6.70;2.50;;;16.20;1.00;;;;;;5034455;28;20502;-50
2023/05/03 10:40:14;;;;;;;6.03;2.30;;;16.90;1.00;;;;;;5033976;28;20446;-50
2023/05/03 10:45:43;;;;;;;4.03;2.07;;;16.60;1.00;;;;;;5034152;28;20422;-49
2023/05/03 10:48:12;;;;;;;2.93;2.20;;;16.10;1.00;;;;;;5033796;28;20474;-51
2023/05/03 10:50:38;;;;;;;4.00;2.10;;;15.80;1.00;;;;;;5033744;28;20229;-50
2023/05/03 10:53:04;;;;;;;3.00;1.77;;;15.30;1.00;;;;;;5033812;28;20420;-51
2023/05/03 10:55:31;;;;;;;3.00;1.90;;;15.20;1.00;;;;;;5033615;28;20422;-50
2023/05/03 10:57:58;;;;;;;3.63;1.77;;;15.40;1.00;;;;;;5033931;28;20290;-51
2023/05/03 11:00:31;;;;;;;4.87;2.17;;;16.40;1.00;;;;;;5033465;28;20510;-50
2023/05/03 11:03:11;;;;;;;6.53;2.20;;;17.90;1.00;;;;;;5033293;28;20919;-51
2023/05/03 11:05:38;;;;;;;4.93;1.70;;;19.20;1.00;;;;;;5033450;28;20412;-51
2023/05/03 11:08:11;;;;;;;4.90;1.77;;;19.00;99.90;;;;;;5033197;28;20421;-51
2023/05/03 11:10:38;;;;;;;3.10;2.23;;;18.10;99.90;;;;;;5033615;28;20445;-51
2023/05/03 11:13:03;;;;;;;4.03;2.27;;;17.10;99.90;;;;;;5031200;28;20491;-52
2023/05/03 11:15:30;;;;;;;2.87;2.20;;;16.40;99.90;;;;;;5031235;28;20475;-51
2023/05/03 11:17:55;;;;;;;3.60;2.50;;;16.30;1.00;;;;;;5033360;28;20186;-51
2023/05/03 11:20:21;;;;;;;5.83;2.60;;;17.10;1.00;;;;;;5033243;28;20418;-52
2023/05/03 11:22:47;;;;;;;8.50;1.67;;;18.30;1.00;;;;;;5033397;28;20268;-51
2023/05/03 11:25:14;;;;;;;3.40;1.73;;;19.10;99.90;;;;;;5033446;28;20642;-52
2023/05/03 11:27:43;;;;;;;3.07;1.60;;;20.00;99.90;;;;;;5033522;28;20189;-53
2023/05/03 11:30:09;;;;;;;2.80;1.87;;;20.50;99.90;;;;;;5033300;28;20430;-53
2023/05/03 11:32:35;;;;;;;2.90;2.17;;;20.80;99.90;;;;;;5033466;28;20433;-52
2023/05/03 11:35:04;;;;;;;3.20;1.60;;;21.10;99.90;;;;;;5033107;28;20428;-53
2023/05/03 11:37:31;;;;;;;3.13;1.60;;;20.80;1.00;;;;;;5033517;28;20444;-51
2023/05/03 11:39:57;;;;;;;5.27;2.00;;;20.90;99.90;;;;;;5032861;28;20422;-52
2023/05/03 11:42:24;;;;;;;2.27;1.77;;;21.20;99.90;;;;;;5033146;28;20428;-52
2023/05/03 11:44:51;;;;;;;7.27;2.03;;;21.40;99.90;;;;;;5034809;28;20437;-53
2023/05/03 11:47:17;;;;;;;4.30;2.33;;;21.80;99.90;;;;;;5036770;28;20420;-53
2023/05/03 11:49:52;;;;;;;4.43;2.10;;;22.00;99.90;;;;;;5037435;28;20489;-51
2023/05/03 11:52:27;;;;;;;5.43;2.10;;;20.50;99.90;;;;;;5037240;28;20220;-52
2023/05/03 11:54:53;;;;;;;2.80;1.70;;;18.80;99.90;;;;;;5036959;28;20900;-52
2023/05/03 11:57:20;;;;;;;3.43;1.90;;;17.40;99.90;;;;;;5036858;28;20473;-52
2023/05/03 11:59:48;;;;;;;4.40;2.50;;;16.90;99.90;;;;;;5036689;28;20417;-51
2023/05/03 12:02:15;;;;;;;2.97;2.10;;;16.60;99.90;;;;;;5036874;28;20413;-50
2023/05/03 12:04:42;;;;;;;6.27;2.10;;;16.30;99.90;;;;;;5037099;28;20520;-51
2023/05/03 12:07:12;;;;;;;5.97;2.70;;;16.20;99.90;;;;;;5036500;28;20426;-51
2023/05/03 12:09:38;;;;;;;2.40;1.90;;;16.80;99.90;;;;;;5037349;28;20830;-51
2023/05/03 12:12:04;;;;;;;4.57;2.53;;;17.20;99.90;;;;;;5036545;28;20458;-51
2023/05/03 12:14:56;;;;;;;5.37;2.50;;;18.10;99.90;;;;;;5036111;28;20965;-51
2023/05/03 12:17:34;;;;;;;2.33;1.97;;;19.00;99.90;;;;;;5036294;28;20419;-53
2023/05/03 12:20:17;;;;;;;4.27;2.00;;;19.70;99.90;;;;;;5036372;28;20551;-52
2023/05/03 12:22:43;;;;;;;5.30;2.43;;;20.40;99.90;;;;;;5036529;28;20409;-53
2023/05/03 12:25:09;;;;;;;2.70;2.00;;;21.10;99.90;;;;;;5036016;28;20474;-53
2023/05/03 12:27:35;;;;;;;4.50;1.90;;;21.50;99.90;;;;;;5036502;28;20763;-53
2023/05/03 12:30:00;;;;;;;2.80;2.20;;;21.80;99.90;;;;;;5036330;28;20187;-52
2023/05/03 12:32:26;;;;;;;3.67;1.90;;;22.00;99.90;;;;;;5036178;28;20245;-51
2023/05/03 12:34:55;;;;;;;2.30;1.93;;;22.40;99.90;;;;;;5036380;28;20533;-53
2023/05/03 12:37:20;;;;;;;5.20;2.07;;;22.90;99.90;;;;;;5036270;28;20189;-52
2023/05/03 12:39:46;;;;;;;2.20;2.00;;;23.10;99.90;;;;;;5036152;28;20471;-53
2023/05/03 12:42:12;;;;;;;3.30;1.80;;;22.50;99.90;;;;;;5036481;28;20193;-50
2023/05/03 12:44:41;;;;;;;5.03;2.47;;;22.40;99.90;;;;;;5035674;28;20229;-52
2023/05/03 12:47:06;;;;;;;3.43;2.20;;;21.60;99.90;;;;;;5035806;28;20178;-53
2023/05/03 12:49:33;;;;;;;4.07;2.23;;;20.60;99.90;;;;;;5036098;28;20472;-51
2023/05/03 12:51:59;;;;;;;3.50;2.33;;;20.70;99.90;;;;;;5036211;28;20218;-54
2023/05/03 12:54:25;;;;;;;3.53;2.30;;;20.90;99.90;;;;;;5036200;28;20444;-53
2023/05/03 12:56:51;;;;;;;2.47;2.10;;;21.40;99.90;;;;;;5034869;28;20425;-54
2023/05/03 12:59:16;;;;;;;5.17;2.70;;;21.70;99.90;;;;;;5035761;28;20413;-53